createdAt,value
2022-09-23T00:01:10.704Z,2.20
2022-09-23T00:03:41.790Z,1.73
2022-09-23T00:06:17.003Z,1.48
2022-09-23T00:08:44.152Z,1.73
2022-09-23T00:11:16.786Z,1.70
2022-09-23T00:13:45.474Z,1.17
2022-09-23T00:16:14.915Z,1.55
2022-09-23T00:18:42.892Z,1.50
2022-09-23T00:21:12.194Z,2.03
2022-09-23T00:23:40.526Z,1.23
2022-09-23T00:26:08.952Z,1.50
2022-09-23T00:28:36.153Z,1.20
2022-09-23T00:31:08.351Z,1.67
2022-09-23T00:33:34.865Z,1.23
2022-09-23T00:36:06.157Z,1.63
2022-09-23T00:38:34.078Z,1.40
2022-09-23T00:41:01.221Z,1.30
2022-09-23T00:43:41.590Z,1.02
2022-09-23T00:46:10.655Z,1.60
2022-09-23T00:48:39.398Z,1.15
2022-09-23T00:51:09.064Z,1.58
2022-09-23T00:53:36.067Z,1.90
2022-09-23T00:56:07.387Z,1.67
2022-09-23T00:58:37.368Z,1.40
2022-09-23T01:01:04.902Z,1.60
2022-09-23T01:03:31.932Z,1.60
2022-09-23T01:05:59.050Z,1.95
2022-09-23T01:08:27.370Z,1.17
2022-09-23T01:11:17.453Z,1.30
2022-09-23T01:14:09.732Z,1.27
2022-09-23T01:17:16.750Z,1.92
2022-09-23T01:20:03.526Z,1.45
2022-09-23T01:22:43.384Z,1.98
2022-09-23T01:25:27.444Z,1.63
2022-09-23T01:28:12.443Z,1.63
2022-09-23T01:30:44.289Z,1.27
2022-09-23T01:33:28.104Z,1.20
2022-09-23T01:36:03.091Z,1.55
2022-09-23T01:38:42.538Z,1.38
2022-09-23T01:41:15.424Z,1.65
2022-09-23T01:44:12.160Z,1.20
2022-09-23T01:46:48.353Z,1.52
2022-09-23T01:49:27.083Z,1.73
2022-09-23T01:52:44.554Z,3.70
2022-09-23T01:55:20.811Z,1.30
2022-09-23T01:57:55.499Z,1.40
2022-09-23T02:00:24.049Z,1.67
2022-09-23T02:02:59.305Z,1.65
2022-09-23T02:05:29.097Z,1.77
2022-09-23T02:08:09.063Z,1.80
2022-09-23T02:10:45.630Z,2.92
2022-09-23T02:13:24.477Z,3.00
2022-09-23T02:15:56.145Z,1.42
2022-09-23T02:18:33.889Z,1.90
2022-09-23T02:21:06.206Z,1.30
2022-09-23T02:23:44.016Z,1.52
2022-09-23T02:26:29.558Z,1.92
2022-09-23T02:29:05.061Z,1.42
2022-09-23T02:31:49.038Z,2.10
2022-09-23T02:34:19.574Z,1.63
2022-09-23T02:36:50.211Z,1.35
2022-09-23T02:39:20.701Z,1.40
2022-09-23T02:42:05.594Z,1.83
2022-09-23T02:44:32.965Z,2.38
2022-09-23T02:46:59.833Z,1.60
2022-09-23T02:49:31.253Z,1.40
2022-09-23T02:52:04.945Z,2.10
2022-09-23T02:54:33.625Z,1.95
2022-09-23T02:57:02.769Z,2.38
2022-09-23T02:59:30.586Z,1.55
2022-09-23T03:02:17.421Z,1.75
2022-09-23T03:05:18.297Z,1.63
2022-09-23T03:08:16.662Z,1.50
2022-09-23T03:11:05.798Z,2.35
2022-09-23T03:13:53.974Z,1.80
2022-09-23T03:16:35.710Z,2.42
2022-09-23T03:19:41.093Z,2.30
2022-09-23T03:24:44.818Z,2.30
2022-09-23T03:27:23.452Z,2.83
2022-09-23T03:29:53.423Z,1.80
2022-09-23T03:32:23.829Z,2.03
2022-09-23T03:34:54.151Z,1.88
2022-09-23T03:37:40.036Z,1.85
2022-09-23T03:40:12.742Z,2.15
2022-09-23T03:42:40.678Z,2.10
2022-09-23T03:45:13.364Z,1.95
2022-09-23T03:47:40.045Z,1.85
2022-09-23T03:50:06.792Z,2.22
2022-09-23T03:52:33.320Z,2.38
2022-09-23T03:55:00.645Z,2.35
2022-09-23T03:57:27.183Z,2.13
2022-09-23T03:59:53.685Z,1.85
2022-09-23T04:02:21.062Z,2.00
2022-09-23T04:04:47.775Z,2.60
2022-09-23T04:07:14.689Z,2.15
2022-09-23T04:09:41.399Z,1.92
2022-09-23T04:12:08.181Z,1.73
2022-09-23T04:14:35.070Z,2.63
2022-09-23T04:17:02.755Z,1.83
2022-09-23T04:19:29.284Z,1.77
2022-09-23T04:21:55.829Z,2.38
2022-09-23T04:24:22.552Z,2.58
2022-09-23T04:26:54.765Z,2.85
2022-09-23T04:29:22.395Z,2.30
2022-09-23T04:31:49.510Z,2.28
2022-09-23T04:34:17.415Z,2.58
2022-09-23T04:36:45.318Z,2.10
2022-09-23T04:39:12.733Z,2.00
2022-09-23T04:41:39.211Z,2.00
2022-09-23T04:44:05.765Z,2.28
2022-09-23T04:46:33.151Z,1.77
2022-09-23T04:48:59.899Z,1.92
2022-09-23T04:51:27.579Z,2.03
2022-09-23T04:53:55.494Z,2.03
2022-09-23T04:56:25.030Z,1.67
2022-09-23T04:58:52.319Z,2.20
2022-09-23T05:01:23.407Z,2.47
2022-09-23T05:03:51.162Z,1.65
2022-09-23T05:06:17.934Z,2.55
2022-09-23T05:08:53.191Z,2.92
2022-09-23T05:11:20.225Z,2.15
2022-09-23T05:13:51.958Z,2.03
2022-09-23T05:16:19.223Z,1.65
2022-09-23T05:18:48.083Z,1.67
2022-09-23T05:21:17.502Z,1.70
2022-09-23T05:23:48.702Z,2.42
2022-09-23T05:26:15.930Z,2.22
2022-09-23T05:28:42.463Z,1.90
2022-09-23T05:31:19.729Z,2.72
2022-09-23T05:33:56.858Z,2.65
2022-09-23T05:36:25.668Z,2.20
2022-09-23T05:38:52.655Z,2.33
2022-09-23T05:41:23.110Z,2.40
2022-09-23T05:43:51.781Z,2.17
2022-09-23T05:46:20.951Z,2.70
2022-09-23T05:48:48.056Z,2.20
2022-09-23T05:51:30.117Z,2.45
2022-09-23T05:53:58.366Z,3.05
2022-09-23T05:56:27.556Z,2.38
2022-09-23T05:58:55.702Z,1.95
2022-09-23T06:01:27.716Z,3.45
2022-09-23T06:03:56.274Z,1.70
2022-09-23T06:06:35.092Z,1.77
2022-09-23T06:09:02.281Z,2.58
2022-09-23T06:11:33.824Z,1.70
2022-09-23T06:14:03.712Z,2.55
2022-09-23T06:16:33.261Z,3.05
2022-09-23T06:19:05.915Z,1.70
2022-09-23T06:21:35.210Z,2.63
2022-09-23T06:24:02.430Z,1.90
2022-09-23T06:26:33.591Z,2.42
2022-09-23T06:29:01.658Z,2.17
2022-09-23T06:31:28.961Z,1.77
2022-09-23T06:34:06.825Z,2.80
2022-09-23T06:36:43.111Z,3.13
2022-09-23T06:39:10.869Z,2.53
2022-09-23T06:41:38.629Z,2.20
2022-09-23T06:44:05.177Z,2.35
2022-09-23T06:46:31.853Z,2.17
2022-09-23T06:48:59.285Z,3.00
2022-09-23T06:51:25.866Z,1.70
2022-09-23T06:53:52.568Z,1.42
2022-09-23T06:56:21.978Z,1.60
2022-09-23T06:58:48.754Z,2.00
2022-09-23T07:01:17.015Z,2.50
2022-09-23T07:03:45.097Z,1.95
2022-09-23T07:06:12.350Z,1.55
2022-09-23T07:08:42.063Z,2.25
2022-09-23T07:11:13.354Z,2.05
2022-09-23T07:13:41.330Z,1.73
2022-09-23T07:16:09.099Z,1.67
2022-09-23T07:18:37.563Z,2.13
2022-09-23T07:21:08.973Z,2.15
2022-09-23T07:23:37.232Z,1.88
2022-09-23T07:26:04.162Z,2.20
2022-09-23T07:28:30.883Z,2.38
2022-09-23T07:31:00.672Z,2.40
2022-09-23T07:33:33.027Z,2.42
2022-09-23T07:36:04.514Z,3.80
2022-09-23T07:38:31.424Z,2.63
2022-09-23T07:41:03.233Z,1.70
2022-09-23T07:43:32.095Z,2.35
2022-09-23T07:46:00.428Z,2.85
2022-09-23T07:48:30.700Z,1.77
2022-09-23T07:51:00.294Z,1.50
2022-09-23T07:53:27.279Z,1.90
2022-09-23T07:55:55.535Z,1.60
2022-09-23T07:58:22.602Z,2.03
2022-09-23T08:00:53.293Z,1.73
2022-09-23T08:03:20.404Z,1.45
2022-09-23T08:05:47.050Z,1.40
2022-09-23T08:08:14.478Z,1.58
2022-09-23T08:10:41.156Z,1.58
2022-09-23T08:13:07.643Z,1.55
2022-09-23T08:15:34.370Z,1.65
2022-09-23T08:18:01.228Z,1.23
2022-09-23T08:20:47.824Z,1.30
2022-09-23T08:23:16.686Z,1.40
2022-09-23T08:25:46.905Z,0.93
2022-09-23T08:28:17.145Z,0.85
2022-09-23T08:30:44.809Z,1.50
2022-09-23T08:33:12.327Z,1.60
2022-09-23T08:35:39.162Z,1.75
2022-09-23T08:38:06.521Z,1.77
2022-09-23T08:40:41.598Z,1.27
2022-09-23T08:43:16.750Z,1.50
2022-09-23T08:45:45.530Z,1.48
2022-09-23T08:48:16.873Z,1.20
2022-09-23T08:50:48.359Z,1.38
2022-09-23T08:53:26.195Z,1.42
2022-09-23T08:55:55.991Z,1.10
2022-09-23T08:59:00.220Z,1.00
2022-09-23T09:01:46.467Z,1.50
2022-09-23T09:04:28.048Z,1.10
2022-09-23T09:07:35.646Z,1.08
2022-09-23T09:10:06.134Z,1.00
2022-09-23T09:13:07.443Z,1.48
2022-09-23T09:15:44.024Z,1.23
2022-09-23T09:18:20.930Z,1.48
2022-09-23T09:21:12.125Z,1.75
2022-09-23T09:24:00.336Z,1.42
2022-09-23T09:26:34.046Z,1.40
2022-09-23T09:29:23.377Z,1.20
2022-09-23T09:31:51.422Z,1.40
2022-09-23T09:34:29.303Z,1.77
2022-09-23T09:37:12.863Z,1.60
2022-09-23T09:39:39.520Z,1.07
2022-09-23T09:42:06.511Z,1.42
2022-09-23T09:44:45.058Z,1.40
2022-09-23T09:47:17.286Z,1.17
2022-09-23T09:50:02.163Z,1.40
2022-09-23T09:52:29.846Z,1.30
2022-09-23T09:55:17.722Z,1.73
2022-09-23T09:57:52.202Z,1.25
2022-09-23T10:00:21.739Z,1.52
2022-09-23T10:03:02.102Z,2.08
2022-09-23T10:05:50.888Z,1.52
2022-09-23T10:08:35.232Z,1.20
2022-09-23T10:13:33.979Z,1.42
2022-09-23T10:16:03.980Z,1.38
2022-09-23T10:18:38.504Z,1.33
2022-09-23T10:21:26.893Z,1.55
2022-09-23T10:23:58.248Z,1.38
2022-09-23T10:26:37.400Z,1.55
2022-09-23T10:29:39.456Z,1.02
2022-09-23T10:32:25.711Z,1.50
2022-09-23T10:34:59.138Z,1.17
2022-09-23T10:37:32.574Z,1.13
2022-09-23T10:40:19.248Z,1.13
2022-09-23T10:43:07.534Z,1.40
2022-09-23T10:45:57.042Z,1.70
2022-09-23T10:48:49.643Z,0.93
2022-09-23T10:51:38.943Z,1.20
2022-09-23T10:54:37.535Z,1.60
2022-09-23T10:57:33.170Z,1.35
2022-09-23T11:00:12.586Z,1.48
2022-09-23T11:03:01.254Z,1.02
2022-09-23T11:05:51.395Z,1.33
2022-09-23T11:08:34.380Z,1.25
2022-09-23T11:11:19.785Z,1.40
2022-09-23T11:14:24.809Z,1.10
2022-09-23T11:17:09.210Z,1.10
2022-09-23T11:20:03.171Z,1.63
2022-09-23T11:22:54.313Z,1.35
2022-09-23T11:25:24.537Z,1.00
2022-09-23T11:28:07.456Z,1.02
2022-09-23T11:30:44.262Z,1.25
2022-09-23T11:33:25.414Z,1.10
2022-09-23T11:36:14.706Z,1.10
2022-09-23T11:38:46.394Z,1.63
2022-09-23T11:41:33.780Z,1.23
2022-09-23T11:44:13.273Z,1.40
2022-09-23T11:46:48.469Z,1.08
2022-09-23T11:49:17.654Z,1.10
2022-09-23T11:52:13.767Z,1.13
2022-09-23T11:55:22.735Z,1.27
2022-09-23T11:58:25.263Z,1.15
2022-09-23T12:01:03.256Z,1.23
2022-09-23T12:04:20.474Z,1.63
2022-09-23T12:06:54.891Z,1.33
2022-09-23T12:09:53.990Z,1.00
2022-09-23T12:12:29.670Z,1.27
2022-09-23T12:15:17.878Z,1.25
2022-09-23T12:18:06.950Z,1.45
2022-09-23T12:20:36.567Z,1.30
2022-09-23T12:23:31.153Z,1.08
2022-09-23T12:26:02.448Z,1.05
2022-09-23T12:28:45.158Z,1.08
2022-09-23T12:31:15.680Z,1.73
2022-09-23T12:33:53.615Z,1.00
2022-09-23T12:36:35.405Z,1.05
2022-09-23T12:39:04.216Z,1.05
2022-09-23T12:41:43.596Z,1.25
2022-09-23T12:44:13.533Z,0.93
2022-09-23T12:46:44.848Z,1.00
2022-09-23T12:49:35.631Z,1.67
2022-09-23T12:52:10.964Z,1.00
2022-09-23T12:54:38.987Z,0.93
2022-09-23T12:57:13.818Z,2.45
2022-09-23T12:59:54.310Z,1.13
2022-09-23T13:02:37.695Z,1.73
2022-09-23T13:05:39.610Z,1.50
2022-09-23T13:08:16.874Z,1.30
2022-09-23T13:10:49.399Z,2.50
2022-09-23T13:17:04.219Z,1.42
2022-09-23T13:19:35.335Z,1.08
2022-09-23T13:24:40.918Z,1.33
2022-09-23T13:27:33.406Z,1.05
2022-09-23T13:30:03.458Z,1.48
2022-09-23T13:32:33.359Z,1.40
2022-09-23T13:35:35.368Z,2.08
2022-09-23T13:38:11.262Z,1.88
2022-09-23T13:40:40.400Z,1.83
2022-09-23T13:43:23.490Z,2.00
2022-09-23T13:45:50.278Z,1.75
2022-09-23T13:48:18.272Z,0.90
2022-09-23T13:50:50.716Z,1.50
2022-09-23T13:53:32.658Z,1.05
2022-09-23T13:56:03.263Z,1.20
2022-09-23T13:58:31.773Z,1.40
2022-09-23T14:00:58.584Z,1.23
2022-09-23T14:03:26.753Z,1.45
2022-09-23T14:05:56.366Z,1.05
2022-09-23T14:08:23.621Z,1.27
2022-09-23T14:10:51.323Z,1.40
2022-09-23T14:13:26.059Z,1.33
2022-09-23T14:15:55.267Z,1.05
2022-09-23T14:18:28.817Z,1.45
2022-09-23T14:20:55.398Z,1.75
2022-09-23T14:23:21.929Z,0.85
2022-09-23T14:25:50.283Z,1.48
2022-09-23T14:28:22.762Z,1.63
2022-09-23T14:30:57.258Z,2.78
2022-09-23T14:33:32.222Z,1.35
2022-09-23T14:36:29.089Z,2.33
2022-09-23T14:39:05.205Z,1.70
2022-09-23T14:41:37.196Z,1.20
2022-09-23T14:44:04.931Z,1.70
2022-09-23T14:46:37.329Z,0.95
2022-09-23T14:49:16.519Z,1.27
2022-09-23T14:51:57.583Z,2.22
2022-09-23T14:54:31.358Z,1.33
2022-09-23T14:56:58.292Z,1.90
2022-09-23T14:59:28.811Z,1.33
2022-09-23T15:01:55.643Z,2.00
2022-09-23T15:04:22.079Z,1.38
2022-09-23T15:07:16.567Z,1.20
2022-09-23T15:09:44.957Z,1.10
2022-09-23T15:12:21.826Z,2.63
2022-09-23T15:14:54.676Z,3.67
2022-09-23T15:17:24.013Z,1.70
2022-09-23T15:19:57.511Z,1.63
2022-09-23T15:22:27.287Z,1.20
2022-09-23T15:25:07.988Z,1.70
2022-09-23T15:27:35.311Z,1.30
2022-09-23T15:30:15.168Z,1.95
2022-09-23T15:32:45.929Z,1.00
2022-09-23T15:35:18.924Z,1.15
2022-09-23T15:37:47.290Z,1.53
2022-09-23T15:40:20.976Z,1.55
2022-09-23T15:42:51.523Z,1.08
2022-09-23T15:45:27.953Z,1.33
2022-09-23T15:47:55.777Z,1.20
2022-09-23T15:50:22.732Z,1.17
2022-09-23T15:52:49.451Z,1.02
2022-09-23T15:55:22.241Z,1.20
2022-09-23T15:57:49.277Z,2.08
2022-09-23T16:00:16.507Z,1.60
2022-09-23T16:02:46.048Z,1.73
2022-09-23T16:05:37.729Z,1.15
2022-09-23T16:08:09.893Z,1.27
2022-09-23T16:10:37.493Z,1.48
2022-09-23T16:13:07.822Z,1.10
2022-09-23T16:15:34.470Z,2.88
2022-09-23T16:18:01.597Z,2.08
2022-09-23T16:20:30.329Z,1.00
2022-09-23T16:22:58.174Z,1.55
2022-09-23T16:25:28.294Z,2.60
2022-09-23T16:27:56.593Z,1.63
2022-09-23T16:30:25.400Z,0.98
2022-09-23T16:32:51.998Z,1.77
2022-09-23T16:35:22.936Z,2.15
2022-09-23T16:37:50.956Z,1.35
2022-09-23T16:40:20.650Z,1.15
2022-09-23T16:42:48.740Z,1.10
2022-09-23T16:45:22.397Z,1.30
2022-09-23T16:47:51.200Z,1.40
2022-09-23T16:50:20.139Z,1.30
2022-09-23T16:52:46.923Z,1.02
2022-09-23T16:55:14.270Z,1.23
2022-09-23T16:57:41.267Z,1.27
2022-09-23T17:00:31.807Z,1.50
2022-09-23T17:03:17.453Z,2.08
2022-09-23T17:05:46.599Z,1.30
2022-09-23T17:08:14.827Z,1.85
2022-09-23T17:10:43.061Z,0.98
2022-09-23T17:13:10.384Z,1.20
2022-09-23T17:15:38.505Z,1.00
2022-09-23T17:18:06.475Z,1.15
2022-09-23T17:20:33.549Z,1.23
2022-09-23T17:23:00.191Z,1.60
2022-09-23T17:25:27.122Z,0.90
2022-09-23T17:27:55.561Z,1.80
2022-09-23T17:30:22.078Z,1.35
2022-09-23T17:32:48.616Z,1.60
2022-09-23T17:35:15.295Z,1.33
2022-09-23T17:37:41.792Z,1.83
2022-09-23T17:40:08.914Z,1.83
2022-09-23T17:42:42.200Z,1.60
2022-09-23T17:45:12.443Z,2.25
2022-09-23T17:47:41.621Z,2.20
2022-09-23T17:50:08.816Z,2.65
2022-09-23T17:52:35.368Z,2.50
2022-09-23T17:55:01.851Z,2.50
2022-09-23T17:57:28.349Z,2.38
2022-09-23T17:59:56.102Z,2.63
2022-09-23T18:02:22.895Z,4.20
2022-09-23T18:04:49.738Z,4.85
2022-09-23T18:07:16.633Z,5.63
2022-09-23T18:09:43.155Z,7.40
2022-09-23T18:12:09.689Z,8.45
2022-09-23T18:14:36.216Z,6.53
2022-09-23T18:17:02.723Z,6.13
2022-09-23T18:19:29.520Z,6.55
2022-09-23T18:21:57.224Z,6.10
2022-09-23T18:24:33.029Z,7.35
2022-09-23T18:27:01.700Z,7.10
2022-09-23T18:29:28.630Z,5.82
2022-09-23T18:31:55.329Z,5.43
2022-09-23T18:34:22.054Z,5.40
2022-09-23T18:36:48.632Z,6.38
2022-09-23T18:39:15.165Z,5.85
2022-09-23T18:41:42.109Z,6.28
2022-09-23T18:44:09.594Z,6.28
2022-09-23T18:46:36.296Z,7.07
2022-09-23T18:49:21.455Z,6.88
2022-09-23T18:51:51.143Z,6.28
2022-09-23T18:54:18.352Z,7.15
2022-09-23T18:56:46.408Z,7.55
2022-09-23T18:59:16.681Z,8.43
2022-09-23T19:01:45.764Z,6.80
2022-09-23T19:04:14.285Z,6.50
2022-09-23T19:06:41.258Z,7.25
2022-09-23T19:09:12.214Z,7.53
2022-09-23T19:11:39.008Z,6.82
2022-09-23T19:14:09.168Z,7.65
2022-09-23T19:16:38.124Z,7.10
2022-09-23T19:19:05.668Z,6.68
2022-09-23T19:21:33.924Z,6.30
2022-09-23T19:24:04.382Z,6.78
2022-09-23T19:26:41.875Z,6.40
2022-09-23T19:29:13.831Z,6.60
2022-09-23T19:31:41.585Z,7.65
2022-09-23T19:34:15.994Z,7.32
2022-09-23T19:39:22.176Z,6.82
2022-09-23T19:41:49.785Z,7.45
2022-09-23T19:44:16.652Z,7.30
2022-09-23T19:46:53.487Z,7.20
2022-09-23T19:49:23.945Z,8.10
2022-09-23T19:51:51.393Z,8.38
2022-09-23T19:54:21.062Z,8.48
2022-09-23T19:56:50.578Z,10.57
2022-09-23T19:59:19.028Z,8.65
2022-09-23T20:01:46.116Z,8.63
2022-09-23T20:04:12.819Z,8.82
2022-09-23T20:06:39.526Z,9.15
2022-09-23T20:09:06.892Z,7.60
2022-09-23T20:11:33.535Z,7.10
2022-09-23T20:14:03.334Z,7.38
2022-09-23T20:16:32.870Z,8.25
2022-09-23T20:19:00.247Z,8.15
2022-09-23T20:21:28.349Z,7.32
2022-09-23T20:23:55.070Z,7.13
2022-09-23T20:26:39.915Z,6.50
2022-09-23T20:29:06.980Z,7.45
2022-09-23T20:31:34.690Z,9.52
2022-09-23T20:34:05.579Z,6.82
2022-09-23T20:36:33.257Z,7.78
2022-09-23T20:39:02.024Z,7.15
2022-09-23T20:41:30.261Z,10.18
2022-09-23T20:43:59.439Z,11.85
2022-09-23T20:46:29.477Z,7.82
2022-09-23T20:48:56.804Z,10.23
2022-09-23T20:51:24.652Z,28.30
2022-09-23T20:53:52.991Z,8.07
2022-09-23T20:56:20.817Z,7.05
2022-09-23T20:58:48.660Z,6.47
2022-09-23T21:01:15.756Z,7.93
2022-09-23T21:03:44.592Z,6.88
2022-09-23T21:06:14.230Z,5.40
2022-09-23T21:08:41.665Z,6.65
2022-09-23T21:11:12.382Z,6.80
2022-09-23T21:13:39.948Z,5.70
2022-09-23T21:16:10.140Z,4.93
2022-09-23T21:18:38.014Z,5.28
2022-09-23T21:21:06.294Z,5.68
2022-09-23T21:23:38.218Z,5.30
2022-09-23T21:26:11.199Z,5.43
2022-09-23T21:28:40.678Z,5.55
2022-09-23T21:31:22.809Z,4.97
2022-09-23T21:33:53.810Z,6.65
2022-09-23T21:36:21.695Z,7.50
2022-09-23T21:38:48.254Z,7.25
2022-09-23T21:41:14.934Z,8.60
2022-09-23T21:43:41.852Z,7.57
2022-09-23T21:46:12.037Z,7.70
2022-09-23T21:48:43.375Z,7.72
2022-09-23T21:51:15.959Z,7.43
2022-09-23T21:53:43.953Z,8.30
2022-09-23T21:56:20.747Z,9.15
2022-09-23T21:58:47.838Z,11.75
2022-09-23T22:01:19.880Z,10.13
2022-09-23T22:03:52.331Z,8.20
2022-09-23T22:06:21.699Z,10.27
2022-09-23T22:08:54.807Z,8.15
2022-09-23T22:11:41.999Z,6.68
2022-09-23T22:14:11.709Z,7.97
2022-09-23T22:16:39.611Z,8.40
2022-09-23T22:19:07.135Z,9.80
2022-09-23T22:21:36.555Z,10.20
2022-09-23T22:24:08.295Z,11.20
2022-09-23T22:26:37.900Z,11.43
2022-09-23T22:29:24.598Z,11.65
2022-09-23T22:32:09.491Z,10.50
2022-09-23T22:34:49.549Z,10.18
2022-09-23T22:37:21.579Z,9.73
2022-09-23T22:39:48.147Z,9.48
2022-09-23T22:42:14.977Z,11.23
2022-09-23T22:44:41.694Z,10.05
2022-09-23T22:47:09.363Z,9.55
2022-09-23T22:49:36.313Z,8.85
2022-09-23T22:52:05.705Z,9.30
2022-09-23T22:54:34.142Z,9.25
2022-09-23T22:57:03.197Z,9.18
2022-09-23T22:59:29.962Z,9.43
2022-09-23T23:01:59.071Z,8.85
2022-09-23T23:04:25.928Z,9.35
2022-09-23T23:06:52.441Z,9.18
2022-09-23T23:09:19.307Z,7.60
2022-09-23T23:11:47.214Z,8.93
2022-09-23T23:14:16.617Z,8.88
2022-09-23T23:16:45.470Z,8.50
2022-09-23T23:19:14.907Z,7.97
2022-09-23T23:21:45.760Z,8.73
2022-09-23T23:24:17.841Z,9.20
2022-09-23T23:26:45.880Z,6.85
2022-09-23T23:29:14.461Z,6.30
2022-09-23T23:31:41.273Z,6.53
2022-09-23T23:34:11.938Z,6.25
2022-09-23T23:36:39.434Z,6.90
2022-09-23T23:39:06.995Z,7.85
2022-09-23T23:41:34.221Z,6.75
2022-09-23T23:44:01.175Z,7.45
2022-09-23T23:46:29.634Z,6.85
2022-09-23T23:48:57.554Z,6.90
2022-09-23T23:51:27.610Z,6.43
2022-09-23T23:53:54.974Z,6.03
2022-09-23T23:56:23.690Z,6.55
2022-09-23T23:59:01.564Z,6.40
